createdAt,value
2018-05-26T00:01:47.618Z,44.20
2018-05-26T00:04:15.206Z,44.50
2018-05-26T00:06:42.789Z,44.90
2018-05-26T00:09:11.175Z,45.30
2018-05-26T00:11:38.762Z,45.30
2018-05-26T00:14:07.107Z,45.70
2018-05-26T00:16:34.710Z,45.60
2018-05-26T00:19:03.067Z,46.50
2018-05-26T00:21:30.658Z,46.50
2018-05-26T00:23:58.273Z,47.30
2018-05-26T00:26:25.871Z,47.40
2018-05-26T00:28:53.481Z,48.00
2018-05-26T00:31:21.110Z,48.70
2018-05-26T00:33:48.682Z,49.50
2018-05-26T00:36:16.265Z,49.50
2018-05-26T00:38:43.887Z,50.00
2018-05-26T00:41:11.474Z,50.20
2018-05-26T00:43:39.844Z,49.60
2018-05-26T00:46:07.464Z,49.60
2018-05-26T00:48:35.048Z,50.20
2018-05-26T00:51:02.617Z,50.50
2018-05-26T00:53:30.239Z,49.70
2018-05-26T00:55:57.829Z,50.00
2018-05-26T00:58:26.196Z,50.60
2018-05-26T01:00:53.807Z,50.50
2018-05-26T01:03:21.394Z,51.20
2018-05-26T01:05:48.976Z,51.60
2018-05-26T01:08:16.582Z,52.40
2018-05-26T01:10:44.175Z,52.70
2018-05-26T01:13:11.752Z,52.70
2018-05-26T01:15:39.383Z,52.60
2018-05-26T01:18:06.975Z,52.80
2018-05-26T01:20:34.563Z,52.80
2018-05-26T01:23:02.183Z,53.70
2018-05-26T01:25:29.769Z,53.70
2018-05-26T01:27:57.366Z,54.40
2018-05-26T01:30:24.981Z,54.70
2018-05-26T01:32:53.350Z,55.50
2018-05-26T01:35:20.970Z,55.40
2018-05-26T01:37:48.595Z,55.20
2018-05-26T01:40:16.189Z,56.80
2018-05-26T01:42:44.550Z,57.30
2018-05-26T01:45:12.167Z,57.30
2018-05-26T01:47:39.759Z,57.60
2018-05-26T01:50:07.374Z,57.90
2018-05-26T01:52:35.000Z,58.50
2018-05-26T01:55:02.590Z,59.00
2018-05-26T01:57:30.178Z,59.00
2018-05-26T01:59:57.786Z,59.70
2018-05-26T02:02:26.167Z,61.20
2018-05-26T02:04:53.745Z,61.10
2018-05-26T02:07:21.354Z,62.70
2018-05-26T02:09:48.933Z,62.20
2018-05-26T02:12:16.518Z,63.30
2018-05-26T02:14:44.126Z,63.50
2018-05-26T02:17:11.727Z,63.40
2018-05-26T02:19:39.331Z,63.30
2018-05-26T02:22:06.948Z,63.60
2018-05-26T02:24:34.523Z,64.10
2018-05-26T02:27:02.105Z,64.80
2018-05-26T02:29:30.489Z,66.10
2018-05-26T02:31:58.097Z,66.10
2018-05-26T02:34:25.692Z,67.00
2018-05-26T02:36:53.323Z,67.60
2018-05-26T02:39:21.670Z,69.30
2018-05-26T02:41:49.267Z,69.20
2018-05-26T02:44:16.874Z,70.10
2018-05-26T02:46:44.453Z,72.00
2018-05-26T02:49:12.045Z,71.20
2018-05-26T02:51:39.703Z,70.70
2018-05-26T02:54:07.282Z,70.20
2018-05-26T02:58:54.018Z,70.70
2018-05-26T03:01:21.599Z,72.10
2018-05-26T03:03:48.705Z,72.30
2018-05-26T03:06:22.007Z,74.20
2018-05-26T03:08:55.275Z,74.80
2018-05-26T03:11:28.487Z,76.40
2018-05-26T03:14:01.721Z,77.70
2018-05-26T03:16:34.945Z,79.40
2018-05-26T03:19:02.530Z,80.80
2018-05-26T03:21:30.113Z,82.00
2018-05-26T03:23:58.494Z,80.60
2018-05-26T03:26:26.086Z,80.50
2018-05-26T03:28:54.434Z,80.50
2018-05-26T03:31:22.061Z,80.50
2018-05-26T03:33:49.638Z,80.80
2018-05-26T03:36:17.262Z,80.60
2018-05-26T03:38:44.842Z,80.90
2018-05-26T03:41:12.435Z,81.20
2018-05-26T03:43:40.809Z,80.60
2018-05-26T03:46:08.434Z,80.60
2018-05-26T03:48:36.026Z,80.00
2018-05-26T03:51:03.617Z,79.60
2018-05-26T03:53:31.262Z,78.40
2018-05-26T03:56:10.633Z,75.60
2018-05-26T03:58:50.156Z,74.70
2018-05-26T04:01:17.738Z,74.30
2018-05-26T04:03:45.328Z,73.30
2018-05-26T04:06:12.978Z,72.00
2018-05-26T04:08:40.604Z,70.50
2018-05-26T04:11:08.199Z,68.00
2018-05-26T04:13:37.001Z,67.10
2018-05-26T04:16:05.350Z,67.00
2018-05-26T04:18:32.937Z,66.90
2018-05-26T04:21:00.551Z,66.50
2018-05-26T04:23:28.155Z,65.90
2018-05-26T04:25:55.744Z,65.90
2018-05-26T04:28:23.353Z,66.20
2018-05-26T04:30:51.693Z,64.80
2018-05-26T04:33:19.274Z,64.60
2018-05-26T04:35:46.902Z,63.00
2018-05-26T04:38:14.495Z,60.90
2018-05-26T04:40:42.107Z,60.40
2018-05-26T04:43:09.751Z,59.70
2018-05-26T04:45:37.343Z,58.90
2018-05-26T04:48:04.921Z,59.20
2018-05-26T04:50:32.534Z,58.80
2018-05-26T04:53:00.890Z,56.70
2018-05-26T04:55:28.449Z,56.70
2018-05-26T04:57:56.063Z,55.70
2018-05-26T05:00:23.631Z,55.10
2018-05-26T05:02:51.222Z,53.90
2018-05-26T05:05:18.842Z,52.20
2018-05-26T05:07:46.406Z,51.10
2018-05-26T05:10:13.966Z,50.80
2018-05-26T05:12:42.330Z,50.90
2018-05-26T05:15:10.709Z,50.90
2018-05-26T05:17:38.274Z,50.80
2018-05-26T05:20:05.875Z,49.60
2018-05-26T05:22:33.442Z,48.60
2018-05-26T05:25:01.008Z,48.00
2018-05-26T05:27:28.599Z,41.90
2018-05-26T05:29:57.185Z,39.40
2018-05-26T05:32:24.765Z,39.40
2018-05-26T05:34:53.118Z,36.30
2018-05-26T05:37:20.682Z,36.20
2018-05-26T05:39:48.266Z,35.90
2018-05-26T05:42:15.863Z,36.00
2018-05-26T05:44:43.423Z,34.40
2018-05-26T05:47:11.164Z,33.90
2018-05-26T05:49:38.792Z,33.10
2018-05-26T05:52:06.392Z,33.40
2018-05-26T05:54:34.051Z,33.20
2018-05-26T05:57:02.411Z,31.00
2018-05-26T05:59:29.981Z,31.00
2018-05-26T06:01:57.614Z,31.20
2018-05-26T06:04:25.189Z,31.40
2018-05-26T06:06:52.750Z,30.80
2018-05-26T06:09:20.314Z,30.00
2018-05-26T06:11:48.658Z,28.30
2018-05-26T06:14:16.227Z,28.30
2018-05-26T06:16:43.788Z,26.90
2018-05-26T06:19:11.386Z,27.40
2018-05-26T06:21:38.946Z,26.90
2018-05-26T06:24:06.510Z,24.50
2018-05-26T06:26:34.126Z,23.70
2018-05-26T06:29:02.478Z,24.50
2018-05-26T06:31:30.047Z,24.40
2018-05-26T06:33:57.630Z,23.60
2018-05-26T06:36:25.183Z,21.70
2018-05-26T06:38:52.736Z,19.50
2018-05-26T06:41:20.323Z,17.40
2018-05-26T06:43:47.884Z,15.80
2018-05-26T06:46:15.446Z,14.50
2018-05-26T06:48:43.794Z,12.30
2018-05-26T06:51:11.349Z,11.90
2018-05-26T06:53:38.907Z,12.10
2018-05-26T06:56:06.485Z,10.10
2018-05-26T06:58:34.042Z,10.40
2018-05-26T07:01:01.595Z,10.40
2018-05-26T07:03:29.938Z,9.90
2018-05-26T07:05:57.495Z,10.00
2018-05-26T07:08:25.056Z,9.00
2018-05-26T07:10:52.642Z,10.00
2018-05-26T07:13:20.204Z,8.80
2018-05-26T07:15:47.755Z,9.00
2018-05-26T07:18:15.335Z,8.30
2018-05-26T07:20:42.885Z,8.90
2018-05-26T07:23:11.203Z,7.40
2018-05-26T07:25:38.786Z,7.40
2018-05-26T07:28:06.331Z,8.00
2018-05-26T07:30:33.883Z,7.70
2018-05-26T07:33:02.223Z,7.10
2018-05-26T07:35:29.766Z,6.90
2018-05-26T07:37:58.084Z,6.40
2018-05-26T07:40:25.662Z,6.40
2018-05-26T07:42:53.207Z,7.00
2018-05-26T07:45:20.750Z,5.50
2018-05-26T07:47:48.323Z,4.80
2018-05-26T07:50:15.875Z,4.10
2018-05-26T07:52:43.436Z,3.70
2018-05-26T07:55:11.019Z,3.10
2018-05-26T07:57:38.631Z,4.20
2018-05-26T08:00:06.992Z,3.60
2018-05-26T08:02:34.572Z,3.60
2018-05-26T08:05:02.181Z,3.70
2018-05-26T08:07:29.739Z,3.60
2018-05-26T08:09:58.139Z,3.20
2018-05-26T08:12:25.687Z,3.20
2018-05-26T08:14:53.238Z,1.00
2018-05-26T08:17:20.850Z,1.00
2018-05-26T08:19:48.399Z,1.00
2018-05-26T08:22:15.961Z,1.00
2018-05-26T08:24:43.548Z,1.00
2018-05-26T08:27:11.093Z,1.00
2018-05-26T08:29:38.642Z,1.00
2018-05-26T08:32:06.222Z,1.00
2018-05-26T08:34:33.766Z,1.00
2018-05-26T08:37:01.314Z,1.00
2018-05-26T08:39:29.655Z,1.00
2018-05-26T08:41:57.197Z,1.00
2018-05-26T08:44:24.772Z,1.00
2018-05-26T08:46:52.386Z,1.00
2018-05-26T08:49:19.932Z,1.00
2018-05-26T08:51:47.479Z,1.00
2018-05-26T08:54:15.814Z,1.00
2018-05-26T08:56:43.355Z,1.00
2018-05-26T08:59:10.898Z,1.00
2018-05-26T09:01:39.248Z,1.00
2018-05-26T09:04:06.794Z,1.00
2018-05-26T09:06:34.350Z,1.00
2018-05-26T09:09:02.702Z,1.00
2018-05-26T09:11:30.260Z,1.00
2018-05-26T09:13:57.810Z,1.30
2018-05-26T09:16:25.392Z,1.70
2018-05-26T09:18:52.934Z,1.00
2018-05-26T09:21:20.490Z,1.00
2018-05-26T09:23:48.273Z,1.00
2018-05-26T09:26:15.873Z,1.00
2018-05-26T09:28:43.422Z,1.00
2018-05-26T09:31:11.006Z,1.00
2018-05-26T09:33:38.558Z,1.00
2018-05-26T09:36:06.858Z,1.00
2018-05-26T09:38:34.436Z,1.00
2018-05-26T09:41:01.983Z,1.00
2018-05-26T09:43:30.312Z,1.00
2018-05-26T09:45:57.899Z,1.00
2018-05-26T09:48:25.455Z,1.00
2018-05-26T09:50:53.059Z,1.50
2018-05-26T09:53:20.678Z,2.10
2018-05-26T09:55:48.235Z,3.00
2018-05-26T09:58:16.546Z,4.80
2018-05-26T10:00:44.113Z,4.70
2018-05-26T10:03:12.431Z,6.10
2018-05-26T10:05:39.979Z,6.00
2018-05-26T10:08:07.564Z,5.20
2018-05-26T10:10:35.113Z,3.70
2018-05-26T10:13:03.430Z,1.00
2018-05-26T10:15:31.008Z,1.00
2018-05-26T10:17:58.563Z,1.00
2018-05-26T10:20:26.123Z,1.00
2018-05-26T10:22:54.457Z,1.00
2018-05-26T10:25:22.006Z,1.00
2018-05-26T10:27:49.561Z,1.00
2018-05-26T10:30:17.903Z,1.30
2018-05-26T10:32:45.455Z,1.30
2018-05-26T10:35:13.023Z,1.30
2018-05-26T10:37:40.601Z,1.00
2018-05-26T10:40:08.159Z,1.00
2018-05-26T10:42:35.707Z,1.00
2018-05-26T10:45:04.051Z,2.60
2018-05-26T10:47:31.612Z,2.60
2018-05-26T10:49:59.274Z,3.00
2018-05-26T10:52:26.831Z,2.90
2018-05-26T10:54:54.376Z,1.70
2018-05-26T10:57:22.687Z,3.30
2018-05-26T10:59:50.336Z,3.20
2018-05-26T11:02:17.878Z,2.90
2018-05-26T11:04:45.426Z,3.50
2018-05-26T11:07:13.002Z,3.30
2018-05-26T11:09:40.553Z,4.00
2018-05-26T11:12:08.106Z,6.20
2018-05-26T11:14:36.459Z,5.80
2018-05-26T11:17:04.042Z,5.70
2018-05-26T11:19:31.598Z,4.70
2018-05-26T11:21:59.213Z,4.10
2018-05-26T11:24:27.546Z,4.60
2018-05-26T11:26:55.084Z,4.60
2018-05-26T11:29:23.424Z,3.30
2018-05-26T11:31:50.967Z,3.20
2018-05-26T11:34:18.507Z,1.70
2018-05-26T11:36:46.887Z,2.60
2018-05-26T11:39:14.439Z,2.30
2018-05-26T11:41:41.985Z,2.60
2018-05-26T11:44:09.568Z,1.90
2018-05-26T11:46:37.129Z,3.20
2018-05-26T11:49:04.675Z,4.00
2018-05-26T11:51:33.019Z,6.40
2018-05-26T11:54:00.659Z,6.40
2018-05-26T11:56:28.210Z,4.40
2018-05-26T11:58:56.547Z,4.90
2018-05-26T12:01:24.090Z,4.90
2018-05-26T12:03:51.632Z,4.90
2018-05-26T12:06:19.211Z,4.50
2018-05-26T12:08:47.524Z,6.00
2018-05-26T12:11:15.090Z,6.00
2018-05-26T12:13:42.676Z,4.90
2018-05-26T12:16:10.222Z,4.40
2018-05-26T12:18:38.545Z,6.40
2018-05-26T12:21:06.123Z,6.40
2018-05-26T12:23:33.660Z,5.80
2018-05-26T12:26:01.975Z,3.60
2018-05-26T12:28:29.563Z,3.50
2018-05-26T12:30:57.133Z,4.30
2018-05-26T12:33:24.686Z,3.40
2018-05-26T12:35:52.275Z,3.60
2018-05-26T12:38:19.829Z,3.80
2018-05-26T12:40:47.387Z,4.80
2018-05-26T12:43:15.730Z,4.10
2018-05-26T12:45:43.289Z,4.10
2018-05-26T12:48:10.945Z,3.40
2018-05-26T12:50:38.519Z,4.20
2018-05-26T12:53:06.075Z,4.40
2018-05-26T12:55:34.392Z,4.60
2018-05-26T12:58:01.983Z,4.60
2018-05-26T13:00:29.533Z,4.70
2018-05-26T13:02:57.096Z,4.90
2018-05-26T13:05:24.671Z,5.20
2018-05-26T13:07:52.228Z,5.30
2018-05-26T13:10:19.805Z,5.30
2018-05-26T13:12:47.367Z,6.20
2018-05-26T13:15:15.815Z,7.60
2018-05-26T13:17:43.382Z,7.50
2018-05-26T13:20:10.950Z,6.90
2018-05-26T13:22:38.527Z,7.10
2018-05-26T13:25:06.097Z,7.50
2018-05-26T13:27:33.843Z,8.30
2018-05-26T13:30:01.414Z,8.90
2018-05-26T13:32:29.811Z,9.50
2018-05-26T13:34:57.652Z,9.50
2018-05-26T13:37:25.261Z,9.00
2018-05-26T13:39:52.867Z,9.70
2018-05-26T13:42:20.461Z,8.70
2018-05-26T13:44:48.047Z,9.30
2018-05-26T13:47:15.644Z,10.00
2018-05-26T13:49:44.202Z,9.00
2018-05-26T13:52:11.799Z,9.00
2018-05-26T13:54:39.377Z,9.00
2018-05-26T13:57:08.115Z,8.30
2018-05-26T13:59:35.689Z,8.30
2018-05-26T14:02:03.230Z,7.90
2018-05-26T14:04:31.552Z,7.00
2018-05-26T14:06:59.138Z,7.00
2018-05-26T14:09:26.695Z,7.40
2018-05-26T14:11:54.608Z,8.80
2018-05-26T14:14:22.158Z,8.30
2018-05-26T14:16:49.730Z,7.00
2018-05-26T14:19:17.305Z,7.10
2018-05-26T14:21:44.864Z,7.00
2018-05-26T14:24:12.666Z,7.40
2018-05-26T14:26:40.239Z,8.50
2018-05-26T14:29:07.781Z,7.90
2018-05-26T14:31:35.397Z,8.30
2018-05-26T14:34:02.971Z,8.60
2018-05-26T14:36:30.547Z,8.00
2018-05-26T14:38:58.087Z,7.80
2018-05-26T14:41:25.914Z,8.40
2018-05-26T14:43:53.485Z,9.10
2018-05-26T14:46:21.843Z,9.20
2018-05-26T14:48:49.413Z,9.20
2018-05-26T14:51:16.963Z,8.70
2018-05-26T14:53:44.514Z,7.70
2018-05-26T14:56:12.842Z,7.40
2018-05-26T14:58:40.417Z,7.40
2018-05-26T15:01:07.999Z,6.50
2018-05-26T15:03:35.561Z,6.80
2018-05-26T15:06:03.105Z,7.10
2018-05-26T15:08:30.672Z,7.50
2018-05-26T15:10:58.232Z,6.80
2018-05-26T15:13:26.630Z,5.50
2018-05-26T15:15:54.161Z,5.50
2018-05-26T15:18:21.715Z,5.80
2018-05-26T15:20:49.292Z,5.50
2018-05-26T15:23:16.862Z,5.70
2018-05-26T15:25:44.433Z,5.60
2018-05-26T15:28:12.005Z,5.60
2018-05-26T15:30:39.571Z,5.80
2018-05-26T15:33:07.161Z,5.90
2018-05-26T15:35:34.723Z,5.60
2018-05-26T15:38:02.268Z,5.60
2018-05-26T15:40:30.614Z,5.20
2018-05-26T15:42:58.175Z,5.20
2018-05-26T15:45:25.750Z,5.30
2018-05-26T15:47:53.322Z,5.30
2018-05-26T15:50:20.880Z,4.80
2018-05-26T15:52:48.442Z,5.10
2018-05-26T15:55:15.983Z,5.60
2018-05-26T15:57:44.334Z,5.80
2018-05-26T16:00:12.105Z,5.70
2018-05-26T16:02:39.666Z,5.00
2018-05-26T16:05:07.233Z,5.60
2018-05-26T16:07:34.778Z,6.00
2018-05-26T16:10:03.125Z,7.90
2018-05-26T16:12:30.674Z,7.90
2018-05-26T16:14:58.228Z,7.20
2018-05-26T16:17:25.815Z,5.90
2018-05-26T16:19:53.387Z,6.90
2018-05-26T16:22:21.000Z,6.50
2018-05-26T16:24:48.537Z,6.10
2018-05-26T16:27:16.092Z,6.10
2018-05-26T16:29:43.717Z,5.90
2018-05-26T16:32:11.323Z,5.40
2018-05-26T16:34:39.680Z,6.90
2018-05-26T16:37:08.093Z,6.80
2018-05-26T16:39:36.469Z,7.10
2018-05-26T16:42:04.040Z,7.10
2018-05-26T16:44:31.612Z,5.90
2018-05-26T16:46:59.329Z,5.70
2018-05-26T16:49:26.988Z,6.80
2018-05-26T16:51:54.655Z,7.60
2018-05-26T16:54:22.310Z,6.10
2018-05-26T16:56:49.889Z,6.50
2018-05-26T16:59:17.513Z,5.90
2018-05-26T17:01:48.526Z,6.70
2018-05-26T17:04:16.343Z,6.00
2018-05-26T17:06:45.605Z,6.50
2018-05-26T17:09:13.141Z,6.90
2018-05-26T17:11:40.889Z,7.90
2018-05-26T17:14:09.224Z,7.50
2018-05-26T17:16:37.261Z,7.50
2018-05-26T17:19:04.943Z,7.30
2018-05-26T17:21:32.567Z,7.20
2018-05-26T17:24:00.167Z,7.40
2018-05-26T17:26:28.531Z,9.10
2018-05-26T17:28:56.764Z,9.10
2018-05-26T17:31:24.418Z,9.80
2018-05-26T17:33:51.975Z,10.00
2018-05-26T17:36:19.647Z,10.80
2018-05-26T17:38:47.333Z,11.10
2018-05-26T17:41:14.953Z,11.30
2018-05-26T17:43:42.526Z,11.40
2018-05-26T17:46:10.095Z,11.40
2018-05-26T17:48:37.674Z,11.00
2018-05-26T17:51:05.233Z,11.80
2018-05-26T17:53:32.794Z,12.30
2018-05-26T17:56:00.434Z,12.70
2018-05-26T17:58:28.011Z,14.00
2018-05-26T18:00:55.588Z,14.80
2018-05-26T18:03:23.134Z,14.60
2018-05-26T18:05:50.695Z,14.70
2018-05-26T18:08:18.292Z,15.10
2018-05-26T18:10:45.875Z,14.90
2018-05-26T18:13:13.454Z,15.00
2018-05-26T18:15:41.006Z,15.80
2018-05-26T18:18:08.563Z,16.00
2018-05-26T18:20:36.147Z,16.50
2018-05-26T18:23:03.710Z,17.00
2018-05-26T18:25:31.290Z,17.40
2018-05-26T18:27:58.839Z,18.00
2018-05-26T18:30:26.391Z,18.20
2018-05-26T18:32:54.735Z,18.80
2018-05-26T18:35:22.292Z,18.70
2018-05-26T18:37:49.894Z,19.30
2018-05-26T18:40:17.471Z,19.40
2018-05-26T18:42:45.035Z,19.50
2018-05-26T18:45:12.634Z,19.40
2018-05-26T18:47:40.949Z,19.90
2018-05-26T18:50:08.539Z,19.90
2018-05-26T18:52:36.099Z,20.10
2018-05-26T18:55:03.655Z,21.10
2018-05-26T18:57:31.997Z,21.20
2018-05-26T18:59:59.553Z,21.20
2018-05-26T19:02:27.136Z,21.20
2018-05-26T19:04:54.698Z,21.70
2018-05-26T19:07:22.263Z,22.50
2018-05-26T19:09:49.829Z,23.00
2018-05-26T19:12:17.377Z,23.70
2018-05-26T19:14:44.991Z,24.20
2018-05-26T19:17:12.551Z,24.10
2018-05-26T19:19:40.104Z,24.50
2018-05-26T19:22:07.691Z,25.00
2018-05-26T19:24:35.246Z,25.00
2018-05-26T19:27:02.799Z,25.60
2018-05-26T19:29:31.143Z,26.60
2018-05-26T19:31:58.706Z,26.60
2018-05-26T19:34:26.282Z,27.50
2018-05-26T19:36:53.958Z,28.30
2018-05-26T19:39:21.446Z,28.20
2018-05-26T19:41:49.026Z,29.00
2018-05-26T19:44:16.591Z,29.60
2018-05-26T19:46:44.151Z,30.20
2018-05-26T19:49:11.730Z,31.00
2018-05-26T19:51:39.291Z,31.30
2018-05-26T19:54:06.869Z,32.00
2018-05-26T19:56:34.435Z,32.20
2018-05-26T19:59:02.033Z,32.30
2018-05-26T20:01:29.592Z,33.00
2018-05-26T20:03:57.150Z,33.50
2018-05-26T20:06:24.751Z,34.20
2018-05-26T20:08:52.314Z,34.70
2018-05-26T20:11:19.875Z,35.00
2018-05-26T20:13:47.446Z,35.50
2018-05-26T20:16:14.999Z,36.10
2018-05-26T20:18:42.593Z,36.50
2018-05-26T20:21:10.145Z,37.10
2018-05-26T20:23:37.698Z,37.70
2018-05-26T20:26:06.048Z,38.50
2018-05-26T20:28:33.602Z,38.50
2018-05-26T20:31:01.191Z,38.40
2018-05-26T20:33:28.754Z,38.60
2018-05-26T20:35:57.247Z,39.10
2018-05-26T20:38:24.830Z,38.80
2018-05-26T20:40:52.395Z,38.80
2018-05-26T20:43:19.976Z,38.80
2018-05-26T20:45:47.531Z,39.70
2018-05-26T20:48:15.091Z,39.40
2018-05-26T20:50:42.673Z,40.20
2018-05-26T20:53:10.239Z,40.20
2018-05-26T20:55:37.826Z,40.10
2018-05-26T20:58:05.386Z,40.20
2018-05-26T21:00:32.942Z,40.30
2018-05-26T21:03:00.518Z,40.40
2018-05-26T21:05:28.104Z,40.70
2018-05-26T21:07:55.702Z,41.20
2018-05-26T21:10:23.272Z,41.60
2018-05-26T21:12:50.829Z,41.50
2018-05-26T21:15:18.402Z,41.30
2018-05-26T21:17:45.974Z,41.20
2018-05-26T21:20:13.567Z,41.50
2018-05-26T21:22:41.125Z,41.50
2018-05-26T21:25:08.691Z,42.00
2018-05-26T21:27:36.327Z,41.70
2018-05-26T21:30:03.883Z,41.60
2018-05-26T21:32:31.635Z,42.10
2018-05-26T21:34:59.239Z,42.00
2018-05-26T21:37:27.578Z,42.20
2018-05-26T21:39:55.258Z,42.10
2018-05-26T21:42:22.840Z,42.40
2018-05-26T21:44:50.430Z,42.00
2018-05-26T21:47:17.986Z,41.60
2018-05-26T21:49:45.550Z,41.80
2018-05-26T21:52:13.222Z,41.70
2018-05-26T21:54:40.794Z,41.70
2018-05-26T21:57:08.379Z,41.60
2018-05-26T21:59:36.899Z,40.90
2018-05-26T22:02:04.470Z,40.70
2018-05-26T22:04:32.038Z,42.10
2018-05-26T22:06:59.606Z,41.50
2018-05-26T22:09:27.215Z,41.90
2018-05-26T22:11:54.795Z,42.30
2018-05-26T22:14:22.409Z,41.90
2018-05-26T22:16:49.955Z,42.60
2018-05-26T22:19:17.510Z,42.80
2018-05-26T22:21:45.094Z,43.20
2018-05-26T22:24:12.656Z,43.30
2018-05-26T22:26:40.211Z,43.70
2018-05-26T22:29:08.559Z,44.30
2018-05-26T22:31:36.118Z,44.20
2018-05-26T22:34:03.711Z,44.90
2018-05-26T22:36:31.266Z,45.40
2018-05-26T22:38:58.827Z,45.60
2018-05-26T22:41:26.415Z,45.80
2018-05-26T22:43:53.972Z,45.10
2018-05-26T22:46:21.559Z,45.00
2018-05-26T22:48:49.118Z,45.30
2018-05-26T22:51:16.669Z,45.90
2018-05-26T22:53:44.262Z,46.50
2018-05-26T22:56:11.819Z,46.70
2018-05-26T22:58:39.401Z,47.50
2018-05-26T23:01:06.960Z,47.60
2018-05-26T23:03:34.531Z,47.90
2018-05-26T23:06:02.115Z,47.80
2018-05-26T23:08:29.674Z,48.60
2018-05-26T23:10:57.312Z,48.00
2018-05-26T23:13:24.862Z,48.40
2018-05-26T23:15:52.427Z,48.70
2018-05-26T23:18:20.005Z,48.80
2018-05-26T23:20:47.562Z,49.30
2018-05-26T23:23:15.179Z,49.60
2018-05-26T23:25:42.760Z,50.30
2018-05-26T23:28:10.646Z,50.60
2018-05-26T23:30:38.251Z,50.40
2018-05-26T23:33:05.838Z,50.90
2018-05-26T23:35:33.453Z,51.20
2018-05-26T23:38:01.822Z,51.60
2018-05-26T23:40:29.412Z,51.50
2018-05-26T23:42:56.994Z,51.60
2018-05-26T23:45:24.582Z,52.00
2018-05-26T23:47:52.202Z,52.00
2018-05-26T23:50:19.768Z,52.40
2018-05-26T23:52:47.335Z,52.60
2018-05-26T23:55:14.948Z,53.20
2018-05-26T23:57:42.510Z,53.40
